sensor_id;sensor_type;location;lat;lon;timestamp;pressure;altitude;pressure_sealevel;temperature;humidity
46430;BME280;32131;53.454;-6.180;2024-01-16T00:01:18;101299.91;;;-0.71;100.00
46430;BME280;32131;53.454;-6.180;2024-01-16T00:03:50;101287.31;;;-0.70;100.00
46430;BME280;32131;53.454;-6.180;2024-01-16T00:06:23;101291.16;;;-0.63;100.00
46430;BME280;32131;53.454;-6.180;2024-01-16T00:08:53;101294.81;;;-0.59;100.00
46430;BME280;32131;53.454;-6.180;2024-01-16T00:11:27;101291.41;;;-0.60;100.00
46430;BME280;32131;53.454;-6.180;2024-01-16T00:14:05;101287.28;;;-0.58;100.00
46430;BME280;32131;53.454;-6.180;2024-01-16T00:16:41;101285.84;;;-0.54;100.00
46430;BME280;32131;53.454;-6.180;2024-01-16T00:19:11;101286.66;;;-0.55;100.00
46430;BME280;32131;53.454;-6.180;2024-01-16T00:21:39;101278.03;;;-0.57;100.00
46430;BME280;32131;53.454;-6.180;2024-01-16T00:24:14;101271.09;;;-0.60;100.00
46430;BME280;32131;53.454;-6.180;2024-01-16T00:26:45;101267.78;;;-0.59;100.00
46430;BME280;32131;53.454;-6.180;2024-01-16T00:29:19;101259.28;;;-0.59;100.00
46430;BME280;32131;53.454;-6.180;2024-01-16T00:31:55;101257.75;;;-0.57;100.00
46430;BME280;32131;53.454;-6.180;2024-01-16T00:34:23;101250.22;;;-0.56;100.00
46430;BME280;32131;53.454;-6.180;2024-01-16T00:36:52;101242.72;;;-0.54;100.00
46430;BME280;32131;53.454;-6.180;2024-01-16T00:39:21;101235.31;;;-0.51;100.00
46430;BME280;32131;53.454;-6.180;2024-01-16T00:41:52;101213.38;;;-0.51;100.00
46430;BME280;32131;53.454;-6.180;2024-01-16T00:44:24;101200.56;;;-0.52;100.00
46430;BME280;32131;53.454;-6.180;2024-01-16T00:46:55;101213.78;;;-0.44;100.00
46430;BME280;32131;53.454;-6.180;2024-01-16T00:49:24;101228.56;;;-0.39;100.00
46430;BME280;32131;53.454;-6.180;2024-01-16T00:51:52;101232.94;;;-0.36;100.00
46430;BME280;32131;53.454;-6.180;2024-01-16T00:54:25;101225.44;;;-0.35;100.00
46430;BME280;32131;53.454;-6.180;2024-01-16T00:56:54;101228.28;;;-0.30;100.00
46430;BME280;32131;53.454;-6.180;2024-01-16T00:59:27;101229.19;;;-0.29;100.00
46430;BME280;32131;53.454;-6.180;2024-01-16T01:01:57;101223.13;;;-0.32;100.00
46430;BME280;32131;53.454;-6.180;2024-01-16T01:04:29;101216.75;;;-0.38;100.00
46430;BME280;32131;53.454;-6.180;2024-01-16T01:06:59;101223.34;;;-0.40;100.00
46430;BME280;32131;53.454;-6.180;2024-01-16T01:09:32;101224.63;;;-0.47;100.00
46430;BME280;32131;53.454;-6.180;2024-01-16T01:12:01;101220.78;;;-0.54;100.00
46430;BME280;32131;53.454;-6.180;2024-01-16T01:14:30;101216.75;;;-0.64;100.00
46430;BME280;32131;53.454;-6.180;2024-01-16T01:17:00;101213.56;;;-0.73;100.00
46430;BME280;32131;53.454;-6.180;2024-01-16T01:19:31;101208.28;;;-0.76;100.00
46430;BME280;32131;53.454;-6.180;2024-01-16T01:22:01;101197.13;;;-0.78;100.00
46430;BME280;32131;53.454;-6.180;2024-01-16T01:24:33;101199.47;;;-0.81;100.00
46430;BME280;32131;53.454;-6.180;2024-01-16T01:27:06;101194.97;;;-0.85;100.00
46430;BME280;32131;53.454;-6.180;2024-01-16T01:29:34;101197.31;;;-0.88;100.00
46430;BME280;32131;53.454;-6.180;2024-01-16T01:32:19;101190.25;;;-0.92;100.00
46430;BME280;32131;53.454;-6.180;2024-01-16T01:34:51;101185.19;;;-0.92;100.00
46430;BME280;32131;53.454;-6.180;2024-01-16T01:37:25;101179.88;;;-0.96;100.00
46430;BME280;32131;53.454;-6.180;2024-01-16T01:39:57;101180.69;;;-0.97;100.00
46430;BME280;32131;53.454;-6.180;2024-01-16T01:42:31;101170.69;;;-1.07;100.00
46430;BME280;32131;53.454;-6.180;2024-01-16T01:45:08;101175.16;;;-1.03;100.00
46430;BME280;32131;53.454;-6.180;2024-01-16T01:47:39;101175.75;;;-1.07;100.00
46430;BME280;32131;53.454;-6.180;2024-01-16T01:50:10;101151.63;;;-1.14;100.00
46430;BME280;32131;53.454;-6.180;2024-01-16T01:52:45;101156.16;;;-1.09;100.00
46430;BME280;32131;53.454;-6.180;2024-01-16T01:55:36;101147.41;;;-1.13;100.00
46430;BME280;32131;53.454;-6.180;2024-01-16T01:58:07;101150.94;;;-1.11;100.00
46430;BME280;32131;53.454;-6.180;2024-01-16T02:00:41;101144.09;;;-1.12;100.00
46430;BME280;32131;53.454;-6.180;2024-01-16T02:03:27;101149.19;;;-1.12;100.00
46430;BME280;32131;53.454;-6.180;2024-01-16T02:06:05;101142.25;;;-1.15;100.00
46430;BME280;32131;53.454;-6.180;2024-01-16T02:08:37;101140.72;;;-1.13;100.00
46430;BME280;32131;53.454;-6.180;2024-01-16T02:11:13;101147.41;;;-1.13;100.00
46430;BME280;32131;53.454;-6.180;2024-01-16T02:13:47;101142.34;;;-1.13;100.00
46430;BME280;32131;53.454;-6.180;2024-01-16T02:16:19;101145.31;;;-1.07;100.00
46430;BME280;32131;53.454;-6.180;2024-01-16T02:18:49;101142.97;;;-1.04;100.00
46430;BME280;32131;53.454;-6.180;2024-01-16T02:21:31;101139.22;;;-0.97;100.00
46430;BME280;32131;53.454;-6.180;2024-01-16T02:24:18;101130.94;;;-0.95;100.00
46430;BME280;32131;53.454;-6.180;2024-01-16T02:26:49;101129.72;;;-0.88;100.00
46430;BME280;32131;53.454;-6.180;2024-01-16T02:29:18;101126.59;;;-0.84;100.00
46430;BME280;32131;53.454;-6.180;2024-01-16T02:31:51;101118.75;;;-0.75;100.00
46430;BME280;32131;53.454;-6.180;2024-01-16T02:34:21;101116.44;;;-0.72;100.00
46430;BME280;32131;53.454;-6.180;2024-01-16T02:36:52;101117.81;;;-0.64;100.00
46430;BME280;32131;53.454;-6.180;2024-01-16T02:39:29;101111.16;;;-0.61;100.00
46430;BME280;32131;53.454;-6.180;2024-01-16T02:42:08;101116.66;;;-0.55;100.00
46430;BME280;32131;53.454;-6.180;2024-01-16T02:44:40;101111.78;;;-0.52;100.00
46430;BME280;32131;53.454;-6.180;2024-01-16T02:47:09;101109.47;;;-0.49;100.00
46430;BME280;32131;53.454;-6.180;2024-01-16T02:49:40;101103.69;;;-0.46;100.00
46430;BME280;32131;53.454;-6.180;2024-01-16T02:52:10;101093.63;;;-0.45;100.00
46430;BME280;32131;53.454;-6.180;2024-01-16T02:54:46;101088.69;;;-0.43;100.00
46430;BME280;32131;53.454;-6.180;2024-01-16T02:57:15;101091.53;;;-0.39;100.00
46430;BME280;32131;53.454;-6.180;2024-01-16T02:59:44;101099.31;;;-0.36;100.00
46430;BME280;32131;53.454;-6.180;2024-01-16T03:02:13;101098.75;;;-0.32;100.00
46430;BME280;32131;53.454;-6.180;2024-01-16T03:04:45;101082.75;;;-0.30;100.00
46430;BME280;32131;53.454;-6.180;2024-01-16T03:07:16;101089.47;;;-0.31;100.00
46430;BME280;32131;53.454;-6.180;2024-01-16T03:10:05;101087.91;;;-0.29;100.00
46430;BME280;32131;53.454;-6.180;2024-01-16T03:12:42;101077.78;;;-0.29;100.00
46430;BME280;32131;53.454;-6.180;2024-01-16T03:15:17;101074.63;;;-0.25;100.00
46430;BME280;32131;53.454;-6.180;2024-01-16T03:17:53;101073.06;;;-0.23;100.00
46430;BME280;32131;53.454;-6.180;2024-01-16T03:20:26;101057.66;;;-0.26;100.00
46430;BME280;32131;53.454;-6.180;2024-01-16T03:22:58;101067.13;;;-0.23;100.00
46430;BME280;32131;53.454;-6.180;2024-01-16T03:25:34;101062.06;;;-0.23;100.00
46430;BME280;32131;53.454;-6.180;2024-01-16T03:28:08;101063.63;;;-0.25;100.00
46430;BME280;32131;53.454;-6.180;2024-01-16T03:30:43;101048.88;;;-0.31;100.00
46430;BME280;32131;53.454;-6.180;2024-01-16T03:33:16;101049.75;;;-0.30;100.00
46430;BME280;32131;53.454;-6.180;2024-01-16T03:35:58;101044.38;;;-0.35;100.00
46430;BME280;32131;53.454;-6.180;2024-01-16T03:38:43;101036.34;;;-0.41;100.00
46430;BME280;32131;53.454;-6.180;2024-01-16T03:41:29;101044.47;;;-0.47;100.00
46430;BME280;32131;53.454;-6.180;2024-01-16T03:44:08;101034.69;;;-0.54;100.00
46430;BME280;32131;53.454;-6.180;2024-01-16T03:46:43;101025.03;;;-0.60;100.00
46430;BME280;32131;53.454;-6.180;2024-01-16T03:49:12;101020.31;;;-0.67;100.00
46430;BME280;32131;53.454;-6.180;2024-01-16T03:51:51;101020.06;;;-0.72;100.00
46430;BME280;32131;53.454;-6.180;2024-01-16T03:54:26;101021.59;;;-0.74;100.00
46430;BME280;32131;53.454;-6.180;2024-01-16T03:57:03;101016.41;;;-0.75;100.00
46430;BME280;32131;53.454;-6.180;2024-01-16T03:59:32;101012.13;;;-0.76;100.00
46430;BME280;32131;53.454;-6.180;2024-01-16T04:05:00;100997.56;;;-0.79;100.00
46430;BME280;32131;53.454;-6.180;2024-01-16T04:07:32;100996.81;;;-0.78;100.00
46430;BME280;32131;53.454;-6.180;2024-01-16T04:10:06;100996.03;;;-0.77;100.00
46430;BME280;32131;53.454;-6.180;2024-01-16T04:12:44;100988.63;;;-0.74;100.00
46430;BME280;32131;53.454;-6.180;2024-01-16T04:15:18;100969.31;;;-0.72;100.00
46430;BME280;32131;53.454;-6.180;2024-01-16T04:17:49;100964.72;;;-0.64;100.00
46430;BME280;32131;53.454;-6.180;2024-01-16T04:20:22;100955.94;;;-0.56;100.00
46430;BME280;32131;53.454;-6.180;2024-01-16T04:22:53;100951.94;;;-0.52;100.00
46430;BME280;32131;53.454;-6.180;2024-01-16T04:25:27;100947.25;;;-0.46;100.00
46430;BME280;32131;53.454;-6.180;2024-01-16T04:28:01;100940.06;;;-0.40;100.00
46430;BME280;32131;53.454;-6.180;2024-01-16T04:30:31;100948.03;;;-0.34;100.00
46430;BME280;32131;53.454;-6.180;2024-01-16T04:33:01;100943.16;;;-0.30;100.00
46430;BME280;32131;53.454;-6.180;2024-01-16T04:35:31;100937.50;;;-0.26;100.00
46430;BME280;32131;53.454;-6.180;2024-01-16T04:37:59;100930.84;;;-0.24;100.00
46430;BME280;32131;53.454;-6.180;2024-01-16T04:40:30;100935.31;;;-0.20;100.00
46430;BME280;32131;53.454;-6.180;2024-01-16T04:43:00;100931.22;;;-0.18;100.00
46430;BME280;32131;53.454;-6.180;2024-01-16T04:45:29;100931.22;;;-0.18;100.00
46430;BME280;32131;53.454;-6.180;2024-01-16T04:48:04;100930.25;;;-0.20;100.00
46430;BME280;32131;53.454;-6.180;2024-01-16T04:50:33;100933.47;;;-0.23;100.00
46430;BME280;32131;53.454;-6.180;2024-01-16T04:53:04;100942.28;;;-0.18;100.00
46430;BME280;32131;53.454;-6.180;2024-01-16T04:55:33;100933.84;;;-0.17;100.00
46430;BME280;32131;53.454;-6.180;2024-01-16T04:58:09;100934.84;;;-0.14;100.00
46430;BME280;32131;53.454;-6.180;2024-01-16T05:00:38;100928.91;;;-0.15;100.00
46430;BME280;32131;53.454;-6.180;2024-01-16T05:03:07;100928.69;;;-0.18;100.00
46430;BME280;32131;53.454;-6.180;2024-01-16T05:05:41;100919.16;;;-0.22;100.00
46430;BME280;32131;53.454;-6.180;2024-01-16T05:08:13;100915.53;;;-0.26;100.00
46430;BME280;32131;53.454;-6.180;2024-01-16T05:10:42;100917.00;;;-0.29;100.00
46430;BME280;32131;53.454;-6.180;2024-01-16T05:13:15;100902.66;;;-0.29;100.00
46430;BME280;32131;53.454;-6.180;2024-01-16T05:15:49;100903.44;;;-0.30;100.00
46430;BME280;32131;53.454;-6.180;2024-01-16T05:18:23;100901.09;;;-0.27;100.00
46430;BME280;32131;53.454;-6.180;2024-01-16T05:20:54;100893.47;;;-0.27;100.00
46430;BME280;32131;53.454;-6.180;2024-01-16T05:23:30;100895.41;;;-0.23;100.00
46430;BME280;32131;53.454;-6.180;2024-01-16T05:25:59;100889.06;;;-0.16;100.00
46430;BME280;32131;53.454;-6.180;2024-01-16T05:28:30;100876.38;;;-0.16;100.00
46430;BME280;32131;53.454;-6.180;2024-01-16T05:31:05;100875.47;;;-0.17;100.00
46430;BME280;32131;53.454;-6.180;2024-01-16T05:33:39;100872.28;;;-0.14;100.00
46430;BME280;32131;53.454;-6.180;2024-01-16T05:36:30;100858.97;;;-0.10;100.00
46430;BME280;32131;53.454;-6.180;2024-01-16T05:38:59;100850.75;;;-0.06;100.00
46430;BME280;32131;53.454;-6.180;2024-01-16T05:41:35;100841.38;;;-0.07;100.00
46430;BME280;32131;53.454;-6.180;2024-01-16T05:44:07;100832.00;;;-0.08;100.00
46430;BME280;32131;53.454;-6.180;2024-01-16T05:46:43;100821.66;;;-0.11;100.00
46430;BME280;32131;53.454;-6.180;2024-01-16T05:49:14;100828.59;;;-0.08;100.00
46430;BME280;32131;53.454;-6.180;2024-01-16T05:51:45;100827.72;;;-0.09;100.00
46430;BME280;32131;53.454;-6.180;2024-01-16T05:54:14;100818.53;;;-0.07;100.00
46430;BME280;32131;53.454;-6.180;2024-01-16T05:56:42;100817.75;;;-0.06;100.00
46430;BME280;32131;53.454;-6.180;2024-01-16T05:59:17;100806.63;;;-0.08;100.00
46430;BME280;32131;53.454;-6.180;2024-01-16T06:01:56;100799.88;;;-0.07;100.00
46430;BME280;32131;53.454;-6.180;2024-01-16T06:04:33;100792.88;;;-0.11;100.00
46430;BME280;32131;53.454;-6.180;2024-01-16T06:07:03;100795.50;;;-0.10;100.00
46430;BME280;32131;53.454;-6.180;2024-01-16T06:09:38;100781.16;;;-0.09;100.00
46430;BME280;32131;53.454;-6.180;2024-01-16T06:12:09;100789.13;;;-0.03;100.00
46430;BME280;32131;53.454;-6.180;2024-01-16T06:14:40;100785.19;;;0.02;99.82
46430;BME280;32131;53.454;-6.180;2024-01-16T06:17:15;100776.78;;;0.03;98.76
46430;BME280;32131;53.454;-6.180;2024-01-16T06:19:46;100765.22;;;-0.07;98.64
46430;BME280;32131;53.454;-6.180;2024-01-16T06:22:15;100764.25;;;-0.09;98.57
46430;BME280;32131;53.454;-6.180;2024-01-16T06:24:45;100763.28;;;-0.11;98.16
46430;BME280;32131;53.454;-6.180;2024-01-16T06:27:14;100771.78;;;-0.10;98.42
46430;BME280;32131;53.454;-6.180;2024-01-16T06:29:48;100780.28;;;-0.10;98.04
46430;BME280;32131;53.454;-6.180;2024-01-16T06:32:20;100773.81;;;-0.05;97.79
46430;BME280;32131;53.454;-6.180;2024-01-16T06:34:51;100773.47;;;0.04;97.21
46430;BME280;32131;53.454;-6.180;2024-01-16T06:37:26;100775.56;;;0.11;96.63
46430;BME280;32131;53.454;-6.180;2024-01-16T06:39:58;100759.56;;;0.12;96.41
46430;BME280;32131;53.454;-6.180;2024-01-16T06:42:27;100758.25;;;0.19;96.08
46430;BME280;32131;53.454;-6.180;2024-01-16T06:44:57;100743.72;;;0.17;95.84
46430;BME280;32131;53.454;-6.180;2024-01-16T06:47:28;100741.25;;;0.18;95.43
46430;BME280;32131;53.454;-6.180;2024-01-16T06:49:58;100733.44;;;0.15;95.32
46430;BME280;32131;53.454;-6.180;2024-01-16T06:52:28;100736.69;;;0.12;95.18
46430;BME280;32131;53.454;-6.180;2024-01-16T06:54:58;100728.63;;;0.05;95.24
46430;BME280;32131;53.454;-6.180;2024-01-16T06:57:34;100724.88;;;-0.02;95.30
46430;BME280;32131;53.454;-6.180;2024-01-16T07:00:08;100729.50;;;-0.10;95.58
46430;BME280;32131;53.454;-6.180;2024-01-16T07:02:37;100719.69;;;-0.19;95.72
46430;BME280;32131;53.454;-6.180;2024-01-16T07:05:09;100713.66;;;-0.21;95.78
46430;BME280;32131;53.454;-6.180;2024-01-16T07:07:58;100705.69;;;-0.27;95.65
46430;BME280;32131;53.454;-6.180;2024-01-16T07:10:29;100694.63;;;-0.27;95.55
46430;BME280;32131;53.454;-6.180;2024-01-16T07:12:58;100675.75;;;-0.33;95.75
46430;BME280;32131;53.454;-6.180;2024-01-16T07:15:46;100671.38;;;-0.35;95.44
46430;BME280;32131;53.454;-6.180;2024-01-16T07:18:21;100661.31;;;-0.34;95.41
46430;BME280;32131;53.454;-6.180;2024-01-16T07:20:55;100662.78;;;-0.37;95.45
46430;BME280;32131;53.454;-6.180;2024-01-16T07:23:35;100665.41;;;-0.36;95.20
46430;BME280;32131;53.454;-6.180;2024-01-16T07:26:06;100653.94;;;-0.44;95.64
46430;BME280;32131;53.454;-6.180;2024-01-16T07:28:42;100661.72;;;-0.41;95.23
46430;BME280;32131;53.454;-6.180;2024-01-16T07:31:12;100643.69;;;-0.45;95.15
46430;BME280;32131;53.454;-6.180;2024-01-16T07:33:43;100651.22;;;-0.47;95.13
46430;BME280;32131;53.454;-6.180;2024-01-16T07:36:12;100669.16;;;-0.44;95.07
46430;BME280;32131;53.454;-6.180;2024-01-16T07:38:40;100661.53;;;-0.44;94.82
46430;BME280;32131;53.454;-6.180;2024-01-16T07:41:09;100657.38;;;-0.43;94.47
46430;BME280;32131;53.454;-6.180;2024-01-16T07:43:43;100657.09;;;-0.48;94.57
46430;BME280;32131;53.454;-6.180;2024-01-16T07:46:20;100659.72;;;-0.46;94.64
46430;BME280;32131;53.454;-6.180;2024-01-16T07:48:55;100650.41;;;-0.46;94.32
46430;BME280;32131;53.454;-6.180;2024-01-16T07:51:25;100639.50;;;-0.45;94.05
46430;BME280;32131;53.454;-6.180;2024-01-16T07:54:07;100640.03;;;-0.36;93.66
46430;BME280;32131;53.454;-6.180;2024-01-16T07:56:47;100630.94;;;-0.32;93.33
46430;BME280;32131;53.454;-6.180;2024-01-16T07:59:25;100628.06;;;-0.23;93.07
46430;BME280;32131;53.454;-6.180;2024-01-16T08:02:09;100631.13;;;-0.14;92.05
46430;BME280;32131;53.454;-6.180;2024-01-16T08:04:38;100636.34;;;-0.11;91.83
46430;BME280;32131;53.454;-6.180;2024-01-16T08:07:06;100629.91;;;-0.06;91.63
46430;BME280;32131;53.454;-6.180;2024-01-16T08:09:35;100625.16;;;0.01;91.18
46430;BME280;32131;53.454;-6.180;2024-01-16T08:12:04;100626.91;;;0.02;90.61
46430;BME280;32131;53.454;-6.180;2024-01-16T08:14:33;100633.13;;;0.07;90.40
46430;BME280;32131;53.454;-6.180;2024-01-16T08:17:05;100628.81;;;0.06;90.64
46430;BME280;32131;53.454;-6.180;2024-01-16T08:19:35;100629.00;;;0.09;89.76
46430;BME280;32131;53.454;-6.180;2024-01-16T08:22:04;100634.09;;;0.09;89.66
46430;BME280;32131;53.454;-6.180;2024-01-16T08:24:35;100635.56;;;0.05;89.29
46430;BME280;32131;53.454;-6.180;2024-01-16T08:27:05;100625.69;;;0.10;88.84
46430;BME280;32131;53.454;-6.180;2024-01-16T08:29:34;100626.81;;;0.15;88.10
46430;BME280;32131;53.454;-6.180;2024-01-16T08:32:03;100627.06;;;0.20;87.53
46430;BME280;32131;53.454;-6.180;2024-01-16T08:34:31;100626.44;;;0.24;87.11
46430;BME280;32131;53.454;-6.180;2024-01-16T08:37:04;100642.09;;;0.31;86.53
46430;BME280;32131;53.454;-6.180;2024-01-16T08:39:40;100623.59;;;0.34;86.18
46430;BME280;32131;53.454;-6.180;2024-01-16T08:42:09;100627.22;;;0.38;85.89
46430;BME280;32131;53.454;-6.180;2024-01-16T08:44:40;100613.09;;;0.43;84.98
46430;BME280;32131;53.454;-6.180;2024-01-16T08:47:08;100615.00;;;0.47;84.39
46430;BME280;32131;53.454;-6.180;2024-01-16T08:49:40;100610.94;;;0.51;83.91
46430;BME280;32131;53.454;-6.180;2024-01-16T08:52:10;100607.88;;;0.56;83.89
46430;BME280;32131;53.454;-6.180;2024-01-16T08:54:39;100609.88;;;0.62;83.60
46430;BME280;32131;53.454;-6.180;2024-01-16T08:57:09;100605.03;;;0.67;83.24
46430;BME280;32131;53.454;-6.180;2024-01-16T08:59:44;100601.88;;;0.71;82.93
46430;BME280;32131;53.454;-6.180;2024-01-16T09:02:24;100598.69;;;0.75;82.40
46430;BME280;32131;53.454;-6.180;2024-01-16T09:05:01;100583.75;;;0.81;82.02
46430;BME280;32131;53.454;-6.180;2024-01-16T09:07:37;100575.75;;;0.90;81.41
46430;BME280;32131;53.454;-6.180;2024-01-16T09:10:07;100580.28;;;0.96;81.44
46430;BME280;32131;53.454;-6.180;2024-01-16T09:12:43;100577.09;;;1.00;80.78
46430;BME280;32131;53.454;-6.180;2024-01-16T09:15:15;100576.47;;;1.04;80.60
46430;BME280;32131;53.454;-6.180;2024-01-16T09:17:44;100574.72;;;1.03;80.72
46430;BME280;32131;53.454;-6.180;2024-01-16T09:20:14;100566.28;;;1.04;80.43
46430;BME280;32131;53.454;-6.180;2024-01-16T09:22:49;100569.69;;;1.04;80.10
46430;BME280;32131;53.454;-6.180;2024-01-16T09:25:24;100576.53;;;1.05;79.75
46430;BME280;32131;53.454;-6.180;2024-01-16T09:27:59;100572.41;;;1.07;79.52
46430;BME280;32131;53.454;-6.180;2024-01-16T09:30:27;100575.81;;;1.08;79.75
46430;BME280;32131;53.454;-6.180;2024-01-16T09:32:58;100572.47;;;1.09;79.16
46430;BME280;32131;53.454;-6.180;2024-01-16T09:35:28;100564.06;;;1.10;79.05
46430;BME280;32131;53.454;-6.180;2024-01-16T09:38:06;100553.09;;;1.11;78.70
46430;BME280;32131;53.454;-6.180;2024-01-16T09:40:37;100545.59;;;1.14;78.76
46430;BME280;32131;53.454;-6.180;2024-01-16T09:43:06;100541.53;;;1.18;78.43
46430;BME280;32131;53.454;-6.180;2024-01-16T09:45:40;100524.84;;;1.23;78.19
46430;BME280;32131;53.454;-6.180;2024-01-16T09:48:12;100528.47;;;1.28;78.02
46430;BME280;32131;53.454;-6.180;2024-01-16T09:50:43;100532.84;;;1.31;77.83
46430;BME280;32131;53.454;-6.180;2024-01-16T09:53:13;100529.44;;;1.30;77.75
46430;BME280;32131;53.454;-6.180;2024-01-16T09:55:42;100521.19;;;1.34;77.20
46430;BME280;32131;53.454;-6.180;2024-01-16T09:58:15;100513.75;;;1.39;77.20
46430;BME280;32131;53.454;-6.180;2024-01-16T10:00:52;100513.91;;;1.42;76.65
46430;BME280;32131;53.454;-6.180;2024-01-16T10:03:23;100504.53;;;1.41;76.44
46430;BME280;32131;53.454;-6.180;2024-01-16T10:05:52;100508.03;;;1.43;76.66
46430;BME280;32131;53.454;-6.180;2024-01-16T10:08:23;100492.91;;;1.46;76.33
46430;BME280;32131;53.454;-6.180;2024-01-16T10:10:52;100499.59;;;1.44;76.79
46430;BME280;32131;53.454;-6.180;2024-01-16T10:13:23;100488.28;;;1.39;76.93
46430;BME280;32131;53.454;-6.180;2024-01-16T10:15:52;100484.03;;;1.38;77.24
46430;BME280;32131;53.454;-6.180;2024-01-16T10:18:25;100491.50;;;1.35;77.29
46430;BME280;32131;53.454;-6.180;2024-01-16T10:21:02;100498.19;;;1.33;77.57
46430;BME280;32131;53.454;-6.180;2024-01-16T10:23:35;100491.44;;;1.33;77.61
46430;BME280;32131;53.454;-6.180;2024-01-16T10:26:08;100488.72;;;1.30;77.73
46430;BME280;32131;53.454;-6.180;2024-01-16T10:28:41;100490.47;;;1.31;77.57
46430;BME280;32131;53.454;-6.180;2024-01-16T10:31:11;100493.81;;;1.30;77.72
46430;BME280;32131;53.454;-6.180;2024-01-16T10:33:43;100489.75;;;1.34;77.79
46430;BME280;32131;53.454;-6.180;2024-01-16T10:36:14;100489.81;;;1.35;77.87
46430;BME280;32131;53.454;-6.180;2024-01-16T10:38:45;100489.19;;;1.39;77.94
46430;BME280;32131;53.454;-6.180;2024-01-16T10:41:21;100484.31;;;1.44;77.76
46430;BME280;32131;53.454;-6.180;2024-01-16T10:44:03;100486.13;;;1.47;77.96
46430;BME280;32131;53.454;-6.180;2024-01-16T10:46:31;100466.63;;;1.47;77.95
46430;BME280;32131;53.454;-6.180;2024-01-16T10:49:01;100459.81;;;1.46;78.10
46430;BME280;32131;53.454;-6.180;2024-01-16T10:51:33;100454.59;;;1.43;78.23
46430;BME280;32131;53.454;-6.180;2024-01-16T10:54:05;100459.50;;;1.40;78.47
46430;BME280;32131;53.454;-6.180;2024-01-16T10:56:36;100455.31;;;1.40;78.46
46430;BME280;32131;53.454;-6.180;2024-01-16T10:59:15;100458.09;;;1.45;78.44
46430;BME280;32131;53.454;-6.180;2024-01-16T11:01:49;100451.31;;;1.46;78.12
46430;BME280;32131;53.454;-6.180;2024-01-16T11:04:23;100442.16;;;1.49;78.25
46430;BME280;32131;53.454;-6.180;2024-01-16T11:06:52;100445.69;;;1.53;78.02
46430;BME280;32131;53.454;-6.180;2024-01-16T11:09:22;100436.63;;;1.58;78.23
46430;BME280;32131;53.454;-6.180;2024-01-16T11:11:53;100431.88;;;1.66;77.98
46430;BME280;32131;53.454;-6.180;2024-01-16T11:14:25;100439.72;;;1.70;77.72
46430;BME280;32131;53.454;-6.180;2024-01-16T11:16:55;100445.09;;;1.77;77.46
46430;BME280;32131;53.454;-6.180;2024-01-16T11:19:25;100433.53;;;1.83;77.21
46430;BME280;32131;53.454;-6.180;2024-01-16T11:22:17;100429.72;;;1.93;76.99
46430;BME280;32131;53.454;-6.180;2024-01-16T11:25:07;100426.88;;;2.05;76.67
46430;BME280;32131;53.454;-6.180;2024-01-16T11:27:37;100428.16;;;2.15;76.45
46430;BME280;32131;53.454;-6.180;2024-01-16T11:30:12;100421.72;;;2.23;76.12
46430;BME280;32131;53.454;-6.180;2024-01-16T11:32:57;100418.59;;;2.29;75.57
46430;BME280;32131;53.454;-6.180;2024-01-16T11:35:32;100420.53;;;2.34;75.81
46430;BME280;32131;53.454;-6.180;2024-01-16T11:38:10;100420.75;;;2.39;75.55
46430;BME280;32131;53.454;-6.180;2024-01-16T11:40:46;100410.84;;;2.47;75.36
46430;BME280;32131;53.454;-6.180;2024-01-16T11:43:36;100403.41;;;2.51;75.21
46430;BME280;32131;53.454;-6.180;2024-01-16T11:46:08;100401.91;;;2.57;75.13
46430;BME280;32131;53.454;-6.180;2024-01-16T11:49:02;100392.25;;;2.69;75.10
46430;BME280;32131;53.454;-6.180;2024-01-16T11:51:32;100390.88;;;2.77;74.83
46430;BME280;32131;53.454;-6.180;2024-01-16T11:54:07;100383.38;;;2.80;74.63
46430;BME280;32131;53.454;-6.180;2024-01-16T11:57:01;100397.19;;;2.86;74.85
46430;BME280;32131;53.454;-6.180;2024-01-16T11:59:58;100370.97;;;2.90;74.64
46430;BME280;32131;53.454;-6.180;2024-01-16T12:02:34;100371.13;;;2.93;74.89
46430;BME280;32131;53.454;-6.180;2024-01-16T12:05:06;100368.13;;;3.03;74.76
46430;BME280;32131;53.454;-6.180;2024-01-16T12:07:48;100363.22;;;3.08;74.69
46430;BME280;32131;53.454;-6.180;2024-01-16T12:10:21;100365.16;;;3.13;74.67
46430;BME280;32131;53.454;-6.180;2024-01-16T12:12:57;100355.78;;;3.14;74.43
46430;BME280;32131;53.454;-6.180;2024-01-16T12:15:36;100353.28;;;3.15;74.35
46430;BME280;32131;53.454;-6.180;2024-01-16T12:18:04;100349.19;;;3.19;74.28
46430;BME280;32131;53.454;-6.180;2024-01-16T12:20:45;100336.69;;;3.25;74.13
46430;BME280;32131;53.454;-6.180;2024-01-16T12:23:15;100342.19;;;3.36;74.04
46430;BME280;32131;53.454;-6.180;2024-01-16T12:25:54;100333.19;;;3.46;73.61
46430;BME280;32131;53.454;-6.180;2024-01-16T12:28:31;100335.25;;;3.55;73.54
46430;BME280;32131;53.454;-6.180;2024-01-16T12:31:00;100327.94;;;3.64;73.24
46430;BME280;32131;53.454;-6.180;2024-01-16T12:33:30;100322.09;;;3.68;73.25
46430;BME280;32131;53.454;-6.180;2024-01-16T12:36:03;100323.38;;;3.80;73.16
46430;BME280;32131;53.454;-6.180;2024-01-16T12:38:33;100320.00;;;3.81;72.83
46430;BME280;32131;53.454;-6.180;2024-01-16T12:41:05;100326.75;;;3.78;73.13
46430;BME280;32131;53.454;-6.180;2024-01-16T12:43:37;100314.44;;;3.68;73.60
46430;BME280;32131;53.454;-6.180;2024-01-16T12:46:06;100325.19;;;3.59;73.49
46430;BME280;32131;53.454;-6.180;2024-01-16T12:48:37;100310.50;;;3.54;73.94
46430;BME280;32131;53.454;-6.180;2024-01-16T12:51:22;100311.31;;;3.53;73.93
46430;BME280;32131;53.454;-6.180;2024-01-16T12:53:51;100308.78;;;3.53;73.94
46430;BME280;32131;53.454;-6.180;2024-01-16T12:56:21;100308.91;;;3.56;73.86
46430;BME280;32131;53.454;-6.180;2024-01-16T12:59:11;100283.78;;;3.68;73.90
46430;BME280;32131;53.454;-6.180;2024-01-16T13:01:45;100278.03;;;3.74;73.24
46430;BME280;32131;53.454;-6.180;2024-01-16T13:04:16;100267.94;;;3.77;73.16
46430;BME280;32131;53.454;-6.180;2024-01-16T13:06:51;100264.78;;;3.84;73.41
46430;BME280;32131;53.454;-6.180;2024-01-16T13:09:32;100257.47;;;3.93;73.04
46430;BME280;32131;53.454;-6.180;2024-01-16T13:12:01;100246.56;;;3.99;72.20
46430;BME280;32131;53.454;-6.180;2024-01-16T13:14:31;100242.56;;;4.07;71.91